Latest Weather Observations for Batchelor

IDD60801

Issued at 4:05 pm CST Saturday 2 August 2014 (issued every 30 minutes, with the page automatically refreshed every 10 minutes)

About weather observations | Map of weather stations | Latest weather observations for NT | Other Formats
Station Details ID: 014272 Name: BATCHELOR AIRPORT Lat: -13.05 Lon: 131.03 Height: 104.0 m
Data from the previous 72 hours. | See also: Recent months at Batchelor
Date/Time
CST
Temp
°C
App
Temp
°C
Dew
Point
Rel
Hum
%
Delta-T
°C
Wind Press
QNH
hPa
Press
MSL
hPa
Rain
since 9 am
mm
Dir
 
Spd
km/h
Gust
km/h
Spd
kts
Gust
kts
02/04:00pm 34.1 30.9 10.0 23 13.9 E 17 26 9 14 1011.0 - 0.0
02/03:30pm 33.9 32.2 11.1 25 13.4 NE 11 22 6 12 1011.0 1010.5 0.0
02/03:00pm 33.7 31.5 10.9 25 13.4 ENE 13 24 7 13 1011.3 1010.8 0.0
02/02:30pm 33.4 30.2 11.3 26 13.0 E 19 28 10 15 1011.8 1011.3 0.0
02/02:00pm 33.0 29.7 11.5 27 12.7 E 20 32 11 17 1012.2 - 0.0
02/01:30pm 32.8 29.9 12.4 29 12.2 E 19 33 10 18 1012.8 1012.2 0.0
02/01:00pm 31.9 28.7 13.2 32 11.3 E 22 37 12 20 1013.3 - 0.0
02/12:30pm 32.1 29.7 14.3 34 10.9 ENE 20 32 11 17 1014.0 1013.4 0.0
02/12:00pm 31.2 28.3 13.9 35 10.5 ENE 22 33 12 18 1014.5 1013.9 0.0
02/11:30am 30.8 28.9 15.2 38 9.6 E 19 30 10 16 1015.1 1014.5 0.0
02/11:00am 29.9 28.8 16.3 43 8.5 E 17 26 9 14 1015.6 - 0.0
02/10:30am 29.0 28.1 16.9 48 7.6 E 17 30 9 16 1016.0 1015.5 0.0
02/10:00am 27.9 28.4 17.4 52 6.6 E 11 17 6 9 1016.4 - 0.0
02/09:30am 26.8 28.4 19.2 63 4.9 NE 9 15 5 8 1016.4 1015.9 0.0
02/09:00am 25.6 27.5 19.7 70 3.8 NNE 9 15 5 8 1016.0 1015.5 0.0
02/08:30am 24.9 27.6 20.2 75 3.1 N 6 9 3 5 1015.7 1015.1 0.0
02/08:00am 23.5 27.0 20.4 83 2.0 NNE 2 4 1 2 1015.5 - 0.0
02/07:30am 21.5 24.8 20.0 91 1.0 NNE 2 4 1 2 1015.3 1014.7 0.0
02/07:00am 20.5 23.5 19.2 92 0.8 NNE 2 6 1 3 1015.0 - 0.0
02/06:30am 20.7 24.2 19.5 93 0.8 CALM 0 0 0 0 1014.7 1014.1 0.0
02/06:00am 21.1 24.8 19.9 93 0.8 NNE 0 0 0 0 1014.4 1013.8 0.0
02/05:30am 21.1 24.2 19.6 91 1.0 NNE 2 4 1 2 1014.1 1013.5 0.0
02/05:00am 21.1 24.4 19.0 88 1.3 CALM 0 0 0 0 1013.9 - 0.0
02/04:30am 21.9 25.5 19.8 88 1.3 CALM 0 0 0 0 1013.9 1013.3 0.0
02/04:00am 22.3 26.3 20.6 90 1.1 CALM 0 0 0 0 1014.0 - 0.0
02/03:30am 22.3 25.5 20.6 90 1.1 NNE 4 6 2 3 1014.0 1013.4 0.0
02/03:00am 22.2 25.3 20.3 89 1.2 NNE 4 6 2 3 1014.2 1013.6 0.0
02/02:30am 22.0 25.7 19.9 88 1.4 CALM 0 0 0 0 1014.2 1013.6 0.0
02/02:00am 22.1 25.9 20.2 89 1.2 CALM 0 0 0 0 1014.4 - 0.0
02/01:30am 22.4 26.0 20.5 89 1.2 NNE 2 4 1 2 1014.5 1013.9 0.0
02/01:00am 22.8 25.9 20.3 86 1.6 NNE 4 6 2 3 1014.8 - 0.0
02/12:30am 22.9 25.8 20.6 87 1.5 W 6 6 3 3 1014.8 1014.2 0.0
02/12:00am 22.9 26.3 20.1 84 1.8 W 2 4 1 2 1014.7 1014.1 0.0
 
Date/Time
CST
Temp
°C
App
Temp
°C
Dew
Point
Rel
Hum
%
Delta-T
°C
Wind Press
QNH
hPa
Press
MSL
hPa
Rain
since 9 am
mm
Dir
 
Spd
km/h
Gust
km/h
Spd
kts
Gust
kts
01/11:30pm 23.4 26.9 20.3 83 2.0 W 2 6 1 3 1014.4 1013.8 0.0
01/11:00pm 23.9 26.9 20.8 83 2.0 W 6 9 3 5 1014.5 - 0.0
01/10:30pm 24.2 27.1 20.7 81 2.3 W 6 11 3 6 1014.3 1013.7 0.0
01/10:00pm 24.5 27.3 20.8 80 2.4 WNW 7 15 4 8 1014.2 - 0.0
01/09:30pm 24.9 27.6 20.6 77 2.8 WNW 7 13 4 7 1014.0 1013.4 0.0
01/09:00pm 25.3 27.5 20.5 75 3.1 WNW 9 15 5 8 1013.7 1013.1 0.0
01/08:30pm 25.8 27.7 20.6 73 3.4 WNW 11 19 6 10 1013.3 1012.7 0.0
01/08:00pm 26.4 28.4 20.0 68 4.2 WNW 9 17 5 9 1012.8 - 0.0
01/07:30pm 27.0 28.4 14.4 46 7.6 CALM 0 0 0 0 1011.9 1011.4 0.0
01/07:00pm 28.6 29.4 13.7 40 8.9 E 2 4 1 2 1011.6 - 0.0
01/06:30pm 30.9 30.8 13.2 34 10.6 E 6 7 3 4 1011.4 1010.9 0.0
01/06:00pm 32.4 32.0 13.1 31 11.6 ESE 7 11 4 6 1011.0 1010.5 0.0
01/05:30pm 32.9 31.6 12.5 29 12.2 ESE 11 19 6 10 1010.8 1010.3 0.0
01/05:00pm 33.3 32.1 12.9 29 12.3 E 11 19 6 10 1010.7 - 0.0
01/04:30pm 33.4 32.4 13.5 30 12.1 ESE 11 24 6 13 1010.6 1010.1 0.0
01/04:00pm 33.3 32.5 13.9 31 11.9 E 11 20 6 11 1010.6 - 0.0
01/03:30pm 33.2 33.1 13.8 31 11.8 E 7 17 4 9 1010.8 1010.3 0.0
01/03:00pm 32.9 31.7 14.0 32 11.6 ENE 13 20 7 11 1011.1 1010.6 0.0
01/02:30pm 32.9 31.9 14.5 33 11.3 E 13 20 7 11 1011.5 1011.0 0.0
01/02:00pm 32.3 31.0 14.9 35 10.8 E 15 32 8 17 1012.2 - 0.0
01/01:30pm 31.4 31.1 15.4 38 9.9 E 11 22 6 12 1012.9 1012.3 0.0
01/01:00pm 31.7 31.4 16.4 39 9.6 NE 13 20 7 11 1013.6 - 0.0
01/12:30pm 31.1 31.4 17.8 45 8.5 E 13 22 7 12 1014.1 1013.5 0.0
01/12:00pm 29.0 30.4 17.8 50 7.1 E 7 17 4 9 1014.8 1014.2 0.0
01/11:30am 29.3 30.6 19.3 55 6.5 NNE 11 17 6 9 1015.3 1014.7 0.0
01/11:00am 27.5 29.0 19.0 59 5.5 NNE 9 15 5 8 1015.7 - 0.0
01/10:30am 27.1 29.8 20.2 66 4.5 NNE 6 11 3 6 1015.9 1015.3 0.0
01/10:00am 26.6 28.6 20.0 67 4.3 N 9 15 5 8 1016.1 - 0.0
01/09:30am 25.9 28.5 20.5 72 3.5 NE 7 13 4 7 1016.2 1015.7 0.0
01/09:00am 24.9 27.6 20.2 75 3.1 NNE 6 11 3 6 1015.9 1015.4 0.0
01/08:30am 24.0 28.0 20.5 81 2.3 CALM 0 4 0 2 1015.7 1015.2 0.0
01/08:00am 21.3 25.1 20.1 93 0.8 CALM 0 0 0 0 1015.6 - 0.0
01/07:30am 20.4 23.5 19.4 94 0.6 N 2 4 1 2 1015.3 1014.8 0.0
01/07:00am 20.1 22.9 18.9 93 0.8 N 2 2 1 1 1015.1 - 0.0
01/06:30am 20.3 22.9 19.3 94 0.6 N 4 6 2 3 1014.8 1014.3 0.0
01/06:00am 20.5 23.6 19.5 94 0.6 N 2 2 1 1 1014.6 1014.1 0.0
01/05:30am 19.6 22.5 18.3 92 0.8 CALM 0 0 0 0 1014.3 1013.8 0.0
01/05:00am 20.2 23.5 19.2 94 0.6 CALM 0 0 0 0 1014.0 - 0.0
01/04:30am 19.9 23.0 18.7 93 0.8 CALM 0 0 0 0 1014.1 1013.6 0.0
01/04:00am 19.8 22.6 17.9 89 1.2 CALM 0 2 0 1 1014.0 - 0.0
01/03:30am 19.8 22.1 17.8 88 1.2 N 2 2 1 1 1014.1 1013.6 0.0
01/03:00am 21.1 24.6 19.6 91 1.0 CALM 0 2 0 1 1014.0 1013.5 0.0
01/02:30am 21.4 24.0 19.3 88 1.3 N 4 4 2 2 1014.1 1013.6 0.0
01/02:00am 21.6 24.2 19.3 87 1.5 N 4 6 2 3 1014.3 - 0.0
01/01:30am 22.4 25.5 20.3 88 1.4 N 4 7 2 4 1014.3 1013.8 0.0
01/01:00am 22.6 25.5 20.7 89 1.2 WNW 6 7 3 4 1014.2 - 0.0
01/12:30am 22.4 25.4 20.1 87 1.5 WNW 4 6 2 3 1014.1 1013.6 0.0
01/12:00am 22.6 25.5 19.8 84 1.8 WNW 4 6 2 3 1014.0 1013.5 0.0
 
Date/Time
CST
Temp
°C
App
Temp
°C
Dew
Point
Rel
Hum
%
Delta-T
°C
Wind Press
QNH
hPa
Press
MSL
hPa
Rain
since 9 am
mm
Dir
 
Spd
km/h
Gust
km/h
Spd
kts
Gust
kts
31/11:30pm 23.1 25.6 19.9 82 2.1 WNW 6 7 3 4 1014.1 1013.6 0.0
31/11:00pm 23.4 26.0 20.0 81 2.2 WNW 6 7 3 4 1014.0 - 0.0
31/10:30pm 23.6 26.4 19.7 79 2.5 W 4 7 2 4 1013.9 1013.4 0.0
31/10:00pm 24.2 27.0 19.7 76 2.9 W 4 7 2 4 1013.7 - 0.0
31/09:30pm 24.9 27.1 19.7 73 3.4 W 7 13 4 7 1013.6 1013.1 0.0
31/09:00pm 25.0 26.6 19.1 70 3.8 NW 9 15 5 8 1013.4 1012.9 0.0
31/08:30pm 24.2 24.9 13.4 51 6.3 E 2 11 1 6 1013.0 1012.5 0.0
31/08:00pm 24.7 25.3 12.0 45 7.3 CALM 0 0 0 0 1012.4 - 0.0
31/07:30pm 26.1 26.6 11.5 40 8.3 CALM 0 0 0 0 1012.1 1011.7 0.0
31/07:00pm 27.9 28.0 11.5 36 9.4 ESE 2 4 1 2 1011.9 - 0.0
31/06:30pm 30.4 29.4 10.4 29 11.5 ESE 6 6 3 3 1011.8 1011.4 0.0
31/06:00pm 32.3 31.1 10.4 26 12.7 E 7 11 4 6 1011.6 1011.1 0.0
31/05:30pm 32.8 31.2 10.2 25 13.0 SE 9 17 5 9 1011.4 1010.9 0.0
31/05:00pm 33.3 32.2 10.6 25 13.2 SE 7 17 4 9 1011.2 - 0.0
31/04:30pm 33.4 31.6 10.7 25 13.2 E 11 20 6 11 1011.0 1010.5 0.0
31/04:00pm 33.1 31.2 10.4 25 13.2 E 11 19 6 10 1011.1 - 0.0
31/03:30pm 33.3 31.4 10.6 25 13.2 ENE 11 20 6 11 1011.5 1011.0 0.0
31/03:00pm 32.9 31.1 10.9 26 12.8 SE 11 19 6 10 1011.8 1011.4 0.0
31/02:30pm 32.3 31.6 12.0 29 12.0 SE 7 11 4 6 1012.4 1012.0 0.0
31/02:00pm 32.5 31.1 12.2 29 12.1 SE 11 24 6 13 1013.0 - 0.0
31/01:30pm 32.0 29.6 12.8 31 11.5 ESE 17 26 9 14 1013.6 1013.1 0.0
31/01:00pm 30.9 28.8 13.7 35 10.4 SE 17 26 9 14 1014.2 - 0.0
31/12:30pm 30.8 29.9 14.8 37 9.8 E 13 24 7 13 1014.8 1014.3 0.0
31/12:00pm 29.9 28.6 14.8 39 9.2 E 15 24 8 13 1015.2 1014.7 0.0
31/11:30am 30.0 29.6 16.1 43 8.7 E 13 19 7 10 1015.7 1015.2 0.0
31/11:00am 28.6 29.5 17.5 51 7.0 E 9 20 5 11 1016.2 - 0.0
31/10:30am 27.6 28.6 17.7 54 6.3 E 9 13 5 7 1016.4 1015.9 0.0
31/10:00am 26.7 27.9 19.1 63 4.9 E 11 17 6 9 1016.5 - 0.0
31/09:30am 25.9 27.8 19.8 69 4.0 ENE 9 15 5 8 1016.6 1016.1 0.0
31/09:00am 24.9 27.0 20.2 75 3.1 E 9 15 5 8 1016.5 1016.0 0.0
31/08:30am 24.3 27.4 20.2 78 2.7 WNW 4 7 2 4 1016.4 1015.9 0.0
31/08:00am 21.7 24.8 19.4 87 1.5 W 2 2 1 1 1016.3 - 0.0
31/07:30am 18.8 21.2 17.1 90 1.0 CALM 0 2 0 1 1016.1 1015.6 0.0
31/07:00am 18.5 20.8 16.7 89 1.1 CALM 0 0 0 0 1015.8 - 0.0
31/06:30am 18.9 21.4 17.2 90 1.0 CALM 0 0 0 0 1015.5 1015.0 0.0
31/06:00am 18.7 20.9 16.5 87 1.3 CALM 0 0 0 0 1015.2 1014.7 0.0
31/05:30am 19.0 21.4 17.0 88 1.2 CALM 0 0 0 0 1015.0 1014.5 0.0
31/05:00am 19.1 21.5 16.9 87 1.3 CALM 0 0 0 0 1014.8 - 0.0
31/04:30am 19.3 21.7 17.1 87 1.3 CALM 0 0 0 0 1014.8 1014.3 0.0
31/04:00am 19.4 21.8 17.0 86 1.5 CALM 0 0 0 0 1014.7 - 0.0
31/03:30am 19.6 22.1 17.2 86 1.5 CALM 0 0 0 0 1014.7 1014.2 0.0
31/03:00am 19.5 21.8 16.7 84 1.7 CALM 0 0 0 0 1014.8 1014.3 0.0
31/02:30am 20.1 22.6 17.3 84 1.7 CALM 0 0 0 0 1014.9 1014.4 0.0
31/02:00am 20.3 22.9 17.5 84 1.7 CALM 0 0 0 0 1015.1 - 0.0
31/01:30am 20.2 22.6 17.0 82 2.0 CALM 0 0 0 0 1015.2 1014.7 0.0
31/01:00am 20.8 23.4 17.6 82 2.0 CALM 0 0 0 0 1015.3 - 0.0
31/12:30am 20.6 22.8 16.6 78 2.4 CALM 0 0 0 0 1015.4 1014.9 0.0
31/12:00am 20.9 22.9 16.1 74 2.9 CALM 0 0 0 0 1015.4 1014.9 0.0
 
Date/Time
CST
Temp
°C
App
Temp
°C
Dew
Point
Rel
Hum
%
Delta-T
°C
Wind Press
QNH
hPa
Press
MSL
hPa
Rain
since 9 am
mm
Dir
 
Spd
km/h
Gust
km/h
Spd
kts
Gust
kts
30/11:30pm 21.6 24.1 17.2 76 2.7 CALM 0 2 0 1 1015.4 1014.9 0.0
30/11:00pm 22.4 24.5 17.3 73 3.2 W 2 4 1 2 1015.5 - 0.0
30/10:30pm 23.2 25.0 17.4 70 3.6 W 4 4 2 2 1015.4 1014.9 0.0
30/10:00pm 23.9 25.2 17.6 68 3.9 W 7 9 4 5 1015.3 - 0.0
30/09:30pm 24.4 25.6 16.9 63 4.6 WNW 6 9 3 5 1015.1 1014.6 0.0
30/09:00pm 24.9 25.8 16.6 60 5.1 WNW 7 11 4 6 1014.9 1014.4 0.0
30/08:30pm 25.2 25.6 16.4 58 5.4 WNW 9 13 5 7 1014.6 1014.1 0.0
30/08:00pm 24.4 24.6 10.7 42 7.7 CALM 0 0 0 0 1013.8 - 0.0
30/07:30pm 25.5 25.3 8.9 35 9.0 CALM 0 0 0 0 1013.5 1013.0 0.0
30/07:00pm 27.5 27.1 8.4 30 10.4 CALM 0 0 0 0 1013.1 - 0.0
30/06:30pm 30.4 29.1 7.6 24 12.5 E 4 7 2 4 1012.8 1012.3 0.0
30/06:00pm 32.1 29.7 7.0 21 13.7 E 9 17 5 9 1012.4 1012.0 0.0
30/05:30pm 33.0 29.9 7.1 20 14.2 E 13 19 7 10 1012.1 1011.7 0.0
30/05:00pm 33.3 30.2 7.3 20 14.4 E 13 20 7 11 1011.9 - 0.0
30/04:30pm 33.4 29.9 7.4 20 14.4 ESE 15 24 8 13 1011.7 1011.3 0.0

Other Formats:

Comma delimited format used in spreadsheet applications
http://www.bom.gov.au/fwo/IDD60801/IDD60801.94125.axf

JavaScript Object Notation format (JSON) in row-major order
http://www.bom.gov.au/fwo/IDD60801/IDD60801.94125.json